createdAt,value
2018-02-03T00:02:14.706Z,8.97
2018-02-03T00:04:42.804Z,9.77
2018-02-03T00:07:10.842Z,16.87
2018-02-03T00:09:40.778Z,6.83
2018-02-03T00:12:08.830Z,7.60
2018-02-03T00:14:37.653Z,9.93
2018-02-03T00:17:05.831Z,9.77
2018-02-03T00:19:33.890Z,8.40
2018-02-03T00:22:02.703Z,6.10
2018-02-03T00:24:30.757Z,9.13
2018-02-03T00:26:59.608Z,9.27
2018-02-03T00:29:27.661Z,5.93
2018-02-03T00:31:55.719Z,5.97
2018-02-03T00:34:23.770Z,7.82
2018-02-03T00:36:52.589Z,4.97
2018-02-03T00:39:20.649Z,11.43
2018-02-03T00:41:48.778Z,5.90
2018-02-03T00:44:16.843Z,9.88
2018-02-03T00:46:44.890Z,7.72
2018-02-03T00:49:13.002Z,6.80
2018-02-03T00:51:41.047Z,13.77
2018-02-03T00:54:09.119Z,8.30
2018-02-03T00:56:37.196Z,5.60
2018-02-03T00:59:05.257Z,12.83
2018-02-03T01:01:34.069Z,12.10
2018-02-03T01:04:02.194Z,10.63
2018-02-03T01:06:30.281Z,8.37
2018-02-03T01:08:59.853Z,10.50
2018-02-03T01:11:28.762Z,8.13
2018-02-03T01:13:56.841Z,9.40
2018-02-03T01:16:24.900Z,12.00
2018-02-03T01:18:52.993Z,9.23
2018-02-03T01:21:21.055Z,8.60
2018-02-03T01:23:49.123Z,11.43
2018-02-03T01:26:17.173Z,10.38
2018-02-03T01:28:45.239Z,9.85
2018-02-03T01:31:14.053Z,11.10
2018-02-03T01:33:42.109Z,9.00
2018-02-03T01:36:12.047Z,11.47
2018-02-03T01:38:41.281Z,9.30
2018-02-03T01:41:09.322Z,8.30
2018-02-03T01:43:37.389Z,9.93
2018-02-03T01:46:05.525Z,12.47
2018-02-03T01:48:33.578Z,10.33
2018-02-03T01:51:01.631Z,10.10
2018-02-03T01:53:29.680Z,9.80
2018-02-03T01:55:59.057Z,9.30
2018-02-03T01:58:27.136Z,13.47
2018-02-03T02:00:55.405Z,11.73
2018-02-03T02:03:23.486Z,12.68
2018-02-03T02:05:51.559Z,10.60
2018-02-03T02:08:19.644Z,10.32
2018-02-03T02:10:47.702Z,10.70
2018-02-03T02:13:15.850Z,11.20
2018-02-03T02:15:43.900Z,12.03
2018-02-03T02:18:12.757Z,12.83
2018-02-03T02:20:41.707Z,16.80
2018-02-03T02:23:11.641Z,13.55
2018-02-03T02:25:39.701Z,22.67
2018-02-03T02:28:07.770Z,13.95
2018-02-03T02:30:36.601Z,8.23
2018-02-03T02:33:04.689Z,13.30
2018-02-03T02:35:32.742Z,10.00
2018-02-03T02:38:00.822Z,15.50
2018-02-03T02:40:28.917Z,11.63
2018-02-03T02:42:56.966Z,12.00
2018-02-03T02:45:25.041Z,18.00
2018-02-03T02:47:53.105Z,12.60
2018-02-03T02:50:21.169Z,11.37
2018-02-03T02:52:49.985Z,14.23
2018-02-03T02:55:18.037Z,9.47
2018-02-03T02:57:47.254Z,12.02
2018-02-03T03:00:15.309Z,17.80
2018-02-03T03:02:44.160Z,10.77
2018-02-03T03:05:12.265Z,11.43
2018-02-03T03:07:40.322Z,9.73
2018-02-03T03:10:08.382Z,14.53
2018-02-03T03:12:36.477Z,10.97
2018-02-03T03:15:04.538Z,12.43
2018-02-03T03:17:32.586Z,12.77
2018-02-03T03:20:00.656Z,10.30
2018-02-03T03:22:28.726Z,14.73
2018-02-03T03:24:57.562Z,11.90
2018-02-03T03:27:25.614Z,12.57
2018-02-03T03:29:53.685Z,10.47
2018-02-03T03:32:21.802Z,13.70
2018-02-03T03:34:49.869Z,13.10
2018-02-03T03:37:17.950Z,15.40
2018-02-03T03:39:46.028Z,8.20
2018-02-03T03:42:14.071Z,14.33
2018-02-03T03:44:42.598Z,15.07
2018-02-03T03:47:10.666Z,11.70
2018-02-03T03:49:38.750Z,13.70
2018-02-03T03:52:06.785Z,11.63
2018-02-03T03:54:34.898Z,14.90
2018-02-03T03:57:02.959Z,10.20
2018-02-03T03:59:31.062Z,13.50
2018-02-03T04:01:59.130Z,14.97
2018-02-03T04:04:27.217Z,20.20
2018-02-03T04:06:55.385Z,22.27
2018-02-03T04:09:23.450Z,14.17
2018-02-03T04:11:51.517Z,14.82
2018-02-03T04:14:19.618Z,14.63
2018-02-03T04:16:47.665Z,11.40
2018-02-03T04:19:15.733Z,14.40
2018-02-03T04:21:43.779Z,11.57
2018-02-03T04:24:13.783Z,14.70
2018-02-03T04:26:43.064Z,12.30
2018-02-03T04:29:11.250Z,13.97
2018-02-03T04:31:39.310Z,14.60
2018-02-03T04:34:07.382Z,13.10
2018-02-03T04:36:35.473Z,18.77
2018-02-03T04:39:03.522Z,17.73
2018-02-03T04:41:31.614Z,13.00
2018-02-03T04:43:59.661Z,14.70
2018-02-03T04:46:27.721Z,18.20
2018-02-03T04:48:56.545Z,15.30
2018-02-03T04:51:24.601Z,13.93
2018-02-03T04:53:52.652Z,18.57
2018-02-03T04:56:21.484Z,16.23
2018-02-03T04:58:49.549Z,14.83
2018-02-03T05:01:17.604Z,12.90
2018-02-03T05:03:46.421Z,10.80
2018-02-03T05:06:14.506Z,12.40
2018-02-03T05:08:44.121Z,18.12
2018-02-03T05:11:14.065Z,16.43
2018-02-03T05:13:43.266Z,17.43
2018-02-03T05:16:11.325Z,13.57
2018-02-03T05:18:39.380Z,18.60
2018-02-03T05:21:07.457Z,15.57
2018-02-03T05:23:35.565Z,14.53
2018-02-03T05:26:03.661Z,22.30
2018-02-03T05:28:31.734Z,15.93
2018-02-03T05:30:59.893Z,17.03
2018-02-03T05:33:27.980Z,12.07
2018-02-03T05:35:56.074Z,20.57
2018-02-03T05:38:24.133Z,21.43
2018-02-03T05:40:52.196Z,16.03
2018-02-03T05:43:20.263Z,18.80
2018-02-03T05:45:48.318Z,15.90
2018-02-03T05:48:16.371Z,15.70
2018-02-03T05:50:45.197Z,16.40
2018-02-03T05:53:13.921Z,13.68
2018-02-03T05:55:41.997Z,13.67
2018-02-03T05:58:10.800Z,19.40
2018-02-03T06:00:38.866Z,23.17
2018-02-03T06:03:06.929Z,14.52
2018-02-03T06:05:34.983Z,18.40
2018-02-03T06:08:03.034Z,19.30
2018-02-03T06:10:31.886Z,14.40
2018-02-03T06:12:59.945Z,14.20
2018-02-03T06:15:28.001Z,16.73
2018-02-03T06:17:56.102Z,13.60
2018-02-03T06:20:24.181Z,13.47
2018-02-03T06:22:52.233Z,14.87
2018-02-03T06:25:20.305Z,17.83
2018-02-03T06:27:48.349Z,20.33
2018-02-03T06:30:17.173Z,17.80
2018-02-03T06:32:45.230Z,16.63
2018-02-03T06:35:14.795Z,15.50
2018-02-03T06:37:42.865Z,13.75
2018-02-03T06:40:10.945Z,11.52
2018-02-03T06:42:39.017Z,14.57
2018-02-03T06:45:07.093Z,19.23
2018-02-03T06:47:35.160Z,15.50
2018-02-03T06:50:03.221Z,14.03
2018-02-03T06:52:31.283Z,10.63
2018-02-03T06:54:59.331Z,12.07
2018-02-03T06:57:28.894Z,16.80
2018-02-03T06:59:57.013Z,10.90
2018-02-03T07:02:25.169Z,15.65
2018-02-03T07:04:53.217Z,13.03
2018-02-03T07:07:21.321Z,17.07
2018-02-03T07:09:49.437Z,11.15
2018-02-03T07:12:18.276Z,16.27
2018-02-03T07:14:46.351Z,17.50
2018-02-03T07:17:15.277Z,16.67
2018-02-03T07:19:43.325Z,14.30
2018-02-03T07:22:11.379Z,13.90
2018-02-03T07:24:39.439Z,12.50
2018-02-03T07:27:08.302Z,14.80
2018-02-03T07:29:36.358Z,10.75
2018-02-03T07:32:04.511Z,15.87
2018-02-03T07:34:32.567Z,13.53
2018-02-03T07:37:01.409Z,11.43
2018-02-03T07:39:29.484Z,11.80
2018-02-03T07:41:57.565Z,12.90
2018-02-03T07:44:25.629Z,13.93
2018-02-03T07:46:53.693Z,10.13
2018-02-03T07:49:21.757Z,13.97
2018-02-03T07:51:49.826Z,11.93
2018-02-03T07:54:17.885Z,18.13
2018-02-03T07:56:46.705Z,12.67
2018-02-03T07:59:15.753Z,11.57
2018-02-03T08:01:43.806Z,12.67
2018-02-03T08:04:11.931Z,11.47
2018-02-03T08:06:40.745Z,13.50
2018-02-03T08:09:08.825Z,16.27
2018-02-03T08:11:37.137Z,14.10
2018-02-03T08:14:05.326Z,13.47
2018-02-03T08:16:33.438Z,19.97
2018-02-03T08:19:02.394Z,16.70
2018-02-03T08:21:30.481Z,21.07
2018-02-03T08:23:58.573Z,12.87
2018-02-03T08:26:26.729Z,19.83
2018-02-03T08:28:55.582Z,14.00
2018-02-03T08:31:23.676Z,15.85
2018-02-03T08:33:51.829Z,17.83
2018-02-03T08:36:20.256Z,20.93
2018-02-03T08:38:48.295Z,13.00
2018-02-03T08:41:16.401Z,15.97
2018-02-03T08:43:44.457Z,15.40
2018-02-03T08:46:13.174Z,11.30
2018-02-03T08:48:41.241Z,13.25
2018-02-03T08:51:09.317Z,16.10
2018-02-03T08:53:37.384Z,14.07
2018-02-03T08:56:05.445Z,14.97
2018-02-03T08:58:33.522Z,16.50
2018-02-03T09:01:01.678Z,14.97
2018-02-03T09:03:29.685Z,18.20
2018-02-03T09:05:57.741Z,14.47
2018-02-03T09:08:25.806Z,16.53
2018-02-03T09:10:55.372Z,14.15
2018-02-03T09:13:24.561Z,15.40
2018-02-03T09:15:52.627Z,17.53
2018-02-03T09:18:20.702Z,11.93
2018-02-03T09:20:48.753Z,18.03
2018-02-03T09:23:16.809Z,17.10
2018-02-03T09:25:45.667Z,14.40
2018-02-03T09:28:13.749Z,15.40
2018-02-03T09:30:41.814Z,16.65
2018-02-03T09:33:09.906Z,12.17
2018-02-03T09:35:37.988Z,11.90
2018-02-03T09:38:06.057Z,15.67
2018-02-03T09:40:34.117Z,14.90
2018-02-03T09:43:02.177Z,17.62
2018-02-03T09:45:30.298Z,15.93
2018-02-03T09:47:58.357Z,16.00
2018-02-03T09:50:26.409Z,15.90
2018-02-03T09:52:56.534Z,21.35
2018-02-03T09:55:25.829Z,13.98
2018-02-03T09:57:55.057Z,15.63
2018-02-03T10:00:23.141Z,11.10
2018-02-03T10:02:51.206Z,11.87
2018-02-03T10:05:19.254Z,11.87
2018-02-03T10:07:47.309Z,14.00
2018-02-03T10:10:16.125Z,13.23
2018-02-03T10:12:44.238Z,12.18
2018-02-03T10:15:12.291Z,16.10
2018-02-03T10:17:40.383Z,18.40
2018-02-03T10:20:08.430Z,10.03
2018-02-03T10:22:36.585Z,15.13
2018-02-03T10:25:05.421Z,19.33
2018-02-03T10:27:33.502Z,12.30
2018-02-03T10:30:01.589Z,17.40
2018-02-03T10:32:29.644Z,14.85
2018-02-03T10:34:57.707Z,15.60
2018-02-03T10:37:25.817Z,13.20
2018-02-03T10:39:53.872Z,12.20
2018-02-03T10:42:21.949Z,14.43
2018-02-03T10:44:50.033Z,13.17
2018-02-03T10:47:18.097Z,11.10
2018-02-03T10:49:46.162Z,14.73
2018-02-03T10:52:14.233Z,23.03
2018-02-03T10:54:42.285Z,11.20
2018-02-03T10:57:11.110Z,11.83
2018-02-03T10:59:39.161Z,10.10
2018-02-03T11:02:08.622Z,15.13
2018-02-03T11:04:36.697Z,10.33
2018-02-03T11:07:04.774Z,11.83
2018-02-03T11:09:32.829Z,10.40
2018-02-03T11:12:00.904Z,10.73
2018-02-03T11:14:29.057Z,9.10
2018-02-03T11:16:57.334Z,15.37
2018-02-03T11:19:26.385Z,10.27
2018-02-03T11:21:54.449Z,9.80
2018-02-03T11:24:22.497Z,12.50
2018-02-03T11:26:50.562Z,8.03
2018-02-03T11:29:19.368Z,11.07
2018-02-03T11:31:47.486Z,12.73
2018-02-03T11:34:15.541Z,10.93
2018-02-03T11:36:43.610Z,13.17
2018-02-03T11:39:11.861Z,11.00
2018-02-03T11:41:39.872Z,10.13
2018-02-03T11:44:07.965Z,10.70
2018-02-03T11:46:36.116Z,10.10
2018-02-03T11:49:04.293Z,10.70
2018-02-03T11:51:32.349Z,12.83
2018-02-03T11:54:01.710Z,10.40
2018-02-03T11:56:29.773Z,13.70
2018-02-03T11:58:57.857Z,9.33
2018-02-03T12:01:26.673Z,12.40
2018-02-03T12:03:54.730Z,11.67
2018-02-03T12:06:22.773Z,7.73
2018-02-03T12:08:50.834Z,12.77
2018-02-03T12:11:19.181Z,12.67
2018-02-03T12:13:48.002Z,16.27
2018-02-03T12:16:16.837Z,12.57
2018-02-03T12:18:44.896Z,18.97
2018-02-03T12:21:12.945Z,9.93
2018-02-03T12:23:41.782Z,13.63
2018-02-03T12:26:09.836Z,8.30
2018-02-03T12:28:37.888Z,13.90
2018-02-03T12:31:06.733Z,9.63
2018-02-03T12:33:34.803Z,8.90
2018-02-03T12:36:02.841Z,7.00
2018-02-03T12:38:31.677Z,13.40
2018-02-03T12:40:59.832Z,13.70
2018-02-03T12:43:27.876Z,11.73
2018-02-03T12:45:57.809Z,10.97
2018-02-03T12:48:27.757Z,6.93
2018-02-03T12:50:56.912Z,9.13
2018-02-03T12:53:25.744Z,8.67
2018-02-03T12:55:53.793Z,8.13
2018-02-03T12:58:22.610Z,8.77
2018-02-03T13:00:50.653Z,12.20
2018-02-03T13:03:19.501Z,8.77
2018-02-03T13:05:47.561Z,11.50
2018-02-03T13:08:15.661Z,14.13
2018-02-03T13:10:43.733Z,13.50
2018-02-03T13:13:11.775Z,8.90
2018-02-03T13:15:39.895Z,9.07
2018-02-03T13:18:07.957Z,8.07
2018-02-03T13:20:36.013Z,6.93
2018-02-03T13:23:04.065Z,8.47
2018-02-03T13:25:32.897Z,8.25
2018-02-03T13:28:00.977Z,12.20
2018-02-03T13:30:29.034Z,9.60
2018-02-03T13:32:57.441Z,10.18
2018-02-03T13:35:25.532Z,8.70
2018-02-03T13:37:53.603Z,9.27
2018-02-03T13:40:21.673Z,9.00
2018-02-03T13:42:49.723Z,18.20
2018-02-03T13:45:17.836Z,8.83
2018-02-03T13:47:45.909Z,11.13
2018-02-03T13:50:13.989Z,10.77
2018-02-03T13:52:42.066Z,10.27
2018-02-03T13:55:10.116Z,13.80
2018-02-03T13:57:38.175Z,13.13
2018-02-03T14:00:06.221Z,14.07
2018-02-03T14:02:34.286Z,12.90
2018-02-03T14:05:02.348Z,34.70
2018-02-03T14:07:30.414Z,9.20
2018-02-03T14:09:58.491Z,14.43
2018-02-03T14:12:27.665Z,9.65
2018-02-03T14:14:55.712Z,10.30
2018-02-03T14:17:24.529Z,12.50
2018-02-03T14:19:53.453Z,9.47
2018-02-03T14:22:21.532Z,11.07
2018-02-03T14:24:52.386Z,8.57
2018-02-03T14:27:20.450Z,9.20
2018-02-03T14:29:48.501Z,16.23
2018-02-03T14:32:16.669Z,11.13
2018-02-03T14:34:44.713Z,11.53
2018-02-03T14:37:12.862Z,10.63
2018-02-03T14:39:40.917Z,11.03
2018-02-03T14:42:09.011Z,11.77
2018-02-03T14:44:37.062Z,10.77
2018-02-03T14:47:05.173Z,14.63
2018-02-03T14:49:33.238Z,10.23
2018-02-03T14:52:01.314Z,11.30
2018-02-03T14:54:29.366Z,9.70
2018-02-03T14:56:57.995Z,12.73
2018-02-03T14:59:26.073Z,10.77
2018-02-03T15:01:54.139Z,13.07
2018-02-03T15:04:22.193Z,8.80
2018-02-03T15:06:50.282Z,9.20
2018-02-03T15:09:18.358Z,8.97
2018-02-03T15:11:46.432Z,11.80
2018-02-03T15:14:14.514Z,15.87
2018-02-03T15:16:42.609Z,8.30
2018-02-03T15:19:10.758Z,11.40
2018-02-03T15:21:38.837Z,13.43
2018-02-03T15:24:06.914Z,14.53
2018-02-03T15:26:35.002Z,17.57
2018-02-03T15:29:03.173Z,13.30
2018-02-03T15:31:31.225Z,13.87
2018-02-03T15:33:59.326Z,9.30
2018-02-03T15:36:28.324Z,12.02
2018-02-03T15:38:56.396Z,29.47
2018-02-03T15:41:24.481Z,18.70
2018-02-03T15:43:52.554Z,18.13
2018-02-03T15:46:20.635Z,14.23
2018-02-03T15:48:48.706Z,11.30
2018-02-03T15:51:16.784Z,9.17
2018-02-03T15:53:44.846Z,14.10
2018-02-03T15:56:12.901Z,13.73
2018-02-03T15:58:40.979Z,12.43
2018-02-03T16:01:09.070Z,10.83
2018-02-03T16:03:37.150Z,13.30
2018-02-03T16:06:05.198Z,10.33
2018-02-03T16:08:33.318Z,13.52
2018-02-03T16:11:01.369Z,14.47
2018-02-03T16:13:29.486Z,15.27
2018-02-03T16:15:58.529Z,12.92
2018-02-03T16:18:26.608Z,16.92
2018-02-03T16:20:54.657Z,14.03
2018-02-03T16:23:23.527Z,15.20
2018-02-03T16:25:51.597Z,12.30
2018-02-03T16:28:19.666Z,12.60
2018-02-03T16:30:47.741Z,16.40
2018-02-03T16:33:15.797Z,9.77
2018-02-03T16:35:43.895Z,10.17
2018-02-03T16:38:11.955Z,13.07
2018-02-03T16:40:40.116Z,19.70
2018-02-03T16:43:08.165Z,18.80
2018-02-03T16:45:36.988Z,13.73
2018-02-03T16:48:05.097Z,13.93
2018-02-03T16:50:33.169Z,14.52
2018-02-03T16:53:01.222Z,16.57
2018-02-03T16:55:29.534Z,14.40
2018-02-03T16:57:58.736Z,13.10
2018-02-03T17:00:26.794Z,19.10
2018-02-03T17:02:54.882Z,12.63
2018-02-03T17:05:22.945Z,15.13
2018-02-03T17:07:51.026Z,12.07
2018-02-03T17:10:19.078Z,5.67
2018-02-03T17:12:47.141Z,3.47
2018-02-03T17:15:15.257Z,6.37
2018-02-03T17:17:43.274Z,3.10
2018-02-03T17:20:12.132Z,4.63
2018-02-03T17:22:40.211Z,2.80
2018-02-03T17:25:08.266Z,3.03
2018-02-03T17:27:36.357Z,6.77
2018-02-03T17:30:04.428Z,3.40
2018-02-03T17:32:32.507Z,5.07
2018-02-03T17:35:00.582Z,6.60
2018-02-03T17:37:34.825Z,4.25
2018-02-03T17:40:02.887Z,8.40
2018-02-03T17:42:30.938Z,3.63
2018-02-03T17:45:04.962Z,6.78
2018-02-03T17:47:33.093Z,3.47
2018-02-03T17:50:01.217Z,5.73
2018-02-03T17:52:29.393Z,5.20
2018-02-03T17:54:57.455Z,4.00
2018-02-03T17:57:31.078Z,5.73
2018-02-03T18:00:00.149Z,5.33
2018-02-03T18:02:29.303Z,5.13
2018-02-03T18:04:57.449Z,6.10
2018-02-03T18:07:25.534Z,4.37
2018-02-03T18:09:54.437Z,4.20
2018-02-03T18:12:22.509Z,5.28
2018-02-03T18:14:50.557Z,7.27
2018-02-03T18:17:18.615Z,4.80
2018-02-03T18:19:47.454Z,7.43
2018-02-03T18:22:15.534Z,5.85
2018-02-03T18:24:43.593Z,10.83
2018-02-03T18:27:11.637Z,5.83
2018-02-03T18:29:39.696Z,7.23
2018-02-03T18:32:08.505Z,7.63
2018-02-03T18:34:36.641Z,5.43
2018-02-03T18:37:04.702Z,5.28
2018-02-03T18:39:32.769Z,7.50
2018-02-03T18:42:00.842Z,7.07
2018-02-03T18:44:29.753Z,7.72
2018-02-03T18:46:57.825Z,7.50
2018-02-03T18:49:25.879Z,10.13
2018-02-03T18:51:53.977Z,29.43
2018-02-03T18:54:22.046Z,9.87
2018-02-03T18:56:50.093Z,11.10
2018-02-03T18:59:18.153Z,9.43
2018-02-03T19:01:46.969Z,10.33
2018-02-03T19:04:15.021Z,7.90
2018-02-03T19:06:43.831Z,9.93
2018-02-03T19:09:11.909Z,11.57
2018-02-03T19:11:40.742Z,7.00
2018-02-03T19:14:08.783Z,8.73
2018-02-03T19:16:36.897Z,10.07
2018-02-03T19:19:04.973Z,8.65
2018-02-03T19:21:33.666Z,8.85
2018-02-03T19:24:01.699Z,8.00
2018-02-03T19:26:30.145Z,4.78
2018-02-03T19:28:58.305Z,4.07
2018-02-03T19:31:26.386Z,6.40
2018-02-03T19:33:54.469Z,5.80
2018-02-03T19:36:22.529Z,4.33
2018-02-03T19:38:50.644Z,7.63
2018-02-03T19:41:18.693Z,7.43
2018-02-03T19:43:46.745Z,6.00
2018-02-03T19:46:14.802Z,5.67
2018-02-03T19:48:42.847Z,5.33
2018-02-03T19:51:11.668Z,6.30
2018-02-03T19:53:39.709Z,8.10
2018-02-03T19:56:07.855Z,5.50
2018-02-03T19:58:35.925Z,7.03
2018-02-03T20:01:03.998Z,8.23
2018-02-03T20:03:32.033Z,6.80
2018-02-03T20:06:00.575Z,6.37
2018-02-03T20:08:28.651Z,8.07
2018-02-03T20:10:56.721Z,4.97
2018-02-03T20:13:24.812Z,9.40
2018-02-03T20:15:52.857Z,6.40
2018-02-03T20:18:20.996Z,7.13
2018-02-03T20:20:49.083Z,5.67
2018-02-03T20:23:17.901Z,6.57
2018-02-03T20:25:45.997Z,5.50
2018-02-03T20:28:14.072Z,10.83
2018-02-03T20:30:42.200Z,7.68
2018-02-03T20:33:11.092Z,9.73
2018-02-03T20:38:09.749Z,7.77
2018-02-03T20:40:37.841Z,10.37
2018-02-03T20:43:05.881Z,11.10
2018-02-03T20:45:33.991Z,6.77
2018-02-03T20:48:02.086Z,9.10
2018-02-03T20:50:30.867Z,17.23
2018-02-03T20:52:58.945Z,7.07
2018-02-03T20:55:27.027Z,8.67
2018-02-03T20:57:55.061Z,10.17
2018-02-03T21:00:23.129Z,9.77
2018-02-03T21:02:51.173Z,11.43
2018-02-03T21:05:20.002Z,10.83
2018-02-03T21:07:48.153Z,8.60
2018-02-03T21:10:17.012Z,9.70
2018-02-03T21:12:45.073Z,12.37
2018-02-03T21:15:13.173Z,9.73
2018-02-03T21:17:41.221Z,8.90
2018-02-03T21:20:09.325Z,10.27
2018-02-03T21:22:37.405Z,15.00
2018-02-03T21:25:05.457Z,14.60
2018-02-03T21:27:33.528Z,9.07
2018-02-03T21:30:01.648Z,14.23
2018-02-03T21:32:29.685Z,9.30
2018-02-03T21:34:57.830Z,13.70
2018-02-03T21:37:25.937Z,10.63
2018-02-03T21:39:54.038Z,12.20
2018-02-03T21:42:22.074Z,11.90
2018-02-03T21:44:50.135Z,12.77
2018-02-03T21:47:18.236Z,14.97
2018-02-03T21:49:46.368Z,13.23
2018-02-03T21:52:15.273Z,10.27
2018-02-03T21:54:44.160Z,16.57
2018-02-03T21:57:13.484Z,13.07
2018-02-03T21:59:41.592Z,11.57
2018-02-03T22:02:09.715Z,15.17
2018-02-03T22:04:37.765Z,13.33
2018-02-03T22:07:05.816Z,14.85
2018-02-03T22:09:33.898Z,20.30
2018-02-03T22:12:01.950Z,14.17
2018-02-03T22:14:30.128Z,14.60
2018-02-03T22:16:58.233Z,16.27
2018-02-03T22:19:26.297Z,13.60
2018-02-03T22:21:54.353Z,13.83
2018-02-03T22:24:22.451Z,16.30
2018-02-03T22:26:51.146Z,17.23
2018-02-03T22:29:19.214Z,13.57
2018-02-03T22:31:47.343Z,16.80
2018-02-03T22:34:15.478Z,13.40
2018-02-03T22:36:43.568Z,16.60
2018-02-03T22:39:11.941Z,20.97
2018-02-03T22:41:39.997Z,19.70
2018-02-03T22:44:08.078Z,20.73
2018-02-03T22:46:36.599Z,16.30
2018-02-03T22:49:04.645Z,16.00
2018-02-03T22:51:32.708Z,15.17
2018-02-03T22:54:02.700Z,19.83
2018-02-03T22:56:32.639Z,15.07
2018-02-03T22:59:01.812Z,14.50
2018-02-03T23:01:30.638Z,16.87
2018-02-03T23:03:58.694Z,22.17
2018-02-03T23:06:26.825Z,16.70
2018-02-03T23:08:54.898Z,22.87
2018-02-03T23:11:22.958Z,19.53
2018-02-03T23:13:51.014Z,23.45
2018-02-03T23:16:19.130Z,16.27
2018-02-03T23:18:47.186Z,18.83
2018-02-03T23:21:15.244Z,22.67
2018-02-03T23:23:43.292Z,27.23
2018-02-03T23:26:12.122Z,20.07
2018-02-03T23:28:40.178Z,20.80
2018-02-03T23:31:08.293Z,16.33
2018-02-03T23:33:36.357Z,21.60
2018-02-03T23:36:04.429Z,20.67
2018-02-03T23:38:32.492Z,27.40
2018-02-03T23:41:00.541Z,26.60
2018-02-03T23:43:29.393Z,24.83
2018-02-03T23:45:58.369Z,19.40
2018-02-03T23:48:26.434Z,38.17
2018-02-03T23:50:54.488Z,21.53
2018-02-03T23:53:24.205Z,24.40
2018-02-03T23:55:52.253Z,29.63
2018-02-03T23:58:20.318Z,24.10
